createdAt,value
2023-04-16T00:02:21.424Z,1013.71
2023-04-16T00:12:21.398Z,1013.85
2023-04-16T00:22:21.610Z,1013.75
2023-04-16T00:32:21.837Z,1013.78
2023-04-16T00:42:22.016Z,1013.80
2023-04-16T00:52:22.198Z,1013.88
2023-04-16T01:02:22.500Z,1013.92
2023-04-16T01:12:22.499Z,1013.87
2023-04-16T01:22:22.690Z,1013.89
2023-04-16T01:32:22.892Z,1013.89
2023-04-16T01:42:23.092Z,1014.00
2023-04-16T01:52:23.291Z,1014.02
2023-04-16T02:02:23.632Z,1014.07
2023-04-16T02:12:23.678Z,1014.02
2023-04-16T02:22:23.874Z,1014.13
2023-04-16T02:32:24.105Z,1014.14
2023-04-16T02:42:24.296Z,1014.25
2023-04-16T02:52:24.512Z,1014.16
2023-04-16T03:02:24.781Z,1014.24
2023-04-16T03:12:24.958Z,1014.27
2023-04-16T03:22:25.153Z,1014.37
2023-04-16T03:32:25.394Z,1014.28
2023-04-16T03:42:25.550Z,1014.35
2023-04-16T03:52:25.769Z,1014.37
2023-04-16T04:02:26.140Z,1014.44
2023-04-16T04:12:26.060Z,1014.47
2023-04-16T04:22:26.250Z,1014.47
2023-04-16T04:32:26.509Z,1014.64
2023-04-16T04:42:26.661Z,1014.77
2023-04-16T04:52:26.883Z,1014.80
2023-04-16T05:02:27.750Z,1014.88
2023-04-16T05:12:27.233Z,1014.95
2023-04-16T05:22:27.432Z,1015.11
2023-04-16T05:32:27.892Z,1015.11
2023-04-16T05:42:27.761Z,1015.21
2023-04-16T05:52:27.947Z,1015.26
2023-04-16T06:02:28.292Z,1015.36
2023-04-16T06:12:28.297Z,1015.34
2023-04-16T06:22:28.534Z,1015.34
2023-04-16T06:32:28.751Z,1015.48
2023-04-16T06:42:28.935Z,1015.55
2023-04-16T06:52:29.218Z,1015.60
2023-04-16T07:02:29.607Z,1015.66
2023-04-16T07:12:29.648Z,1015.71
2023-04-16T07:22:29.858Z,1015.68
2023-04-16T07:32:30.107Z,1015.72
2023-04-16T07:42:30.314Z,1015.82
2023-04-16T07:52:30.527Z,1015.86
2023-04-16T08:02:30.873Z,1015.94
2023-04-16T08:12:30.874Z,1016.01
2023-04-16T08:22:31.093Z,1016.08
2023-04-16T08:32:31.347Z,1016.21
2023-04-16T08:42:31.626Z,1016.23
2023-04-16T08:52:31.881Z,1016.27
2023-04-16T09:02:32.089Z,1016.30
2023-04-16T09:12:32.050Z,1016.35
2023-04-16T09:22:32.268Z,1016.50
2023-04-16T09:32:32.529Z,1016.57
2023-04-16T09:42:32.737Z,1016.64
2023-04-16T09:52:32.974Z,1016.75
2023-04-16T10:02:33.390Z,1016.73
2023-04-16T10:12:33.409Z,1016.76
2023-04-16T10:22:33.638Z,1016.76
2023-04-16T10:32:33.895Z,1016.77
2023-04-16T10:42:34.069Z,1016.76
2023-04-16T10:52:34.349Z,1016.77
2023-04-16T11:02:34.648Z,1016.66
2023-04-16T11:12:34.746Z,1016.64
2023-04-16T11:22:35.154Z,1016.65
2023-04-16T11:32:35.201Z,1016.61
2023-04-16T11:42:35.434Z,1016.70
2023-04-16T11:52:35.621Z,1016.67
2023-04-16T12:02:36.046Z,1016.62
2023-04-16T12:12:36.065Z,1016.65
2023-04-16T12:22:37.261Z,1016.68
2023-04-16T12:32:36.556Z,1016.66
2023-04-16T12:42:36.968Z,1016.74
2023-04-16T12:52:37.107Z,1016.69
2023-04-16T13:02:37.340Z,1016.73
2023-04-16T13:12:37.226Z,1016.68
2023-04-16T13:22:37.677Z,1016.60
2023-04-16T13:32:37.601Z,1016.71
2023-04-16T13:42:37.811Z,1016.72
2023-04-16T13:52:37.868Z,1016.73
2023-04-16T14:02:38.446Z,1016.70
2023-04-16T14:12:38.237Z,1016.74
2023-04-16T14:22:39.283Z,1016.73
2023-04-16T14:32:38.801Z,1016.71
2023-04-16T14:42:38.707Z,1016.78
2023-04-16T14:52:39.015Z,1016.75
2023-04-16T15:02:39.402Z,1016.74
2023-04-16T15:12:39.514Z,1016.80
2023-04-16T15:22:39.804Z,1016.89
2023-04-16T15:32:41.675Z,1016.90
2023-04-16T15:42:39.839Z,1017.01
2023-04-16T15:52:40.181Z,1016.99
2023-04-16T16:02:40.710Z,1016.99
2023-04-16T16:12:40.733Z,1017.06
2023-04-16T16:22:44.683Z,1017.12
2023-04-16T16:32:41.237Z,1017.14
2023-04-16T16:42:41.178Z,1017.27
2023-04-16T16:52:41.302Z,1017.19
2023-04-16T17:02:41.406Z,1017.28
2023-04-16T17:12:41.365Z,1017.25
2023-04-16T17:22:41.652Z,1017.35
2023-04-16T17:32:41.856Z,1017.43
2023-04-16T17:42:41.947Z,1017.44
2023-04-16T17:52:42.085Z,1017.45
2023-04-16T18:02:42.429Z,1017.51
2023-04-16T18:12:43.016Z,1017.55
2023-04-16T18:22:42.596Z,1017.66
2023-04-16T18:32:56.151Z,1017.75
2023-04-16T18:42:44.039Z,1017.74
2023-04-16T18:52:43.225Z,1017.74
2023-04-16T19:02:43.360Z,1017.71
2023-04-16T19:12:44.377Z,1017.85
2023-04-16T19:22:47.434Z,1017.82
2023-04-16T19:32:43.964Z,1017.83
2023-04-16T19:42:44.138Z,1017.84
2023-04-16T19:52:44.293Z,1017.82
2023-04-16T20:02:44.280Z,1017.84
2023-04-16T20:12:57.194Z,1017.86
2023-04-16T20:22:44.742Z,1017.83
2023-04-16T20:32:44.906Z,1017.84
2023-04-16T20:42:44.779Z,1017.75
2023-04-16T20:52:44.943Z,1017.75
2023-04-16T21:02:45.271Z,1017.61
2023-04-16T21:12:45.266Z,1017.51
2023-04-16T21:22:45.464Z,1017.52
2023-04-16T21:32:45.690Z,1017.41
2023-04-16T21:42:45.879Z,1017.46
2023-04-16T21:52:46.124Z,1017.52
2023-04-16T22:02:46.472Z,1017.39
2023-04-16T22:12:46.382Z,1017.38
2023-04-16T22:22:46.582Z,1017.34
2023-04-16T22:32:46.816Z,1017.30
2023-04-16T22:42:47.025Z,1017.25
2023-04-16T22:52:47.223Z,1017.28
2023-04-16T23:02:47.474Z,1017.27
2023-04-16T23:12:47.685Z,1017.17
2023-04-16T23:22:47.895Z,1017.18
2023-04-16T23:32:48.139Z,1017.10
2023-04-16T23:42:48.302Z,1017.04
2023-04-16T23:52:48.524Z,1017.01
